Celandine — ONDN — position and weather

sailwx.info

Track history (hours):
 
Tides and Currents Weather Stations Pressure Air Temp Water Temp Dewpoint Dewpoint Depression Visibility Wind Speed Wind Dir Waves Ship Positions

Celandine

Last reported at 2015-Apr-01 07:33 UTC. Time now 2015-Apr-01 08:02 UTC.
Position N 55°03' E 006°38'.

Length 162 m; draft 6 m.

Type: Ship (hazmat cat A). MMSI: 205476000.

Date/timePositionNaut miles runAvg speedWind from/ knotsBaromVisibWave heightAir tempDewpointWater temp
2015-Apr-01 07:33N 55°03' E 006°38'1110.6
2015-Apr-01 06:33N 54°53' E 006°39'6613.0
2015-Apr-01 01:26N 54°19' E 004°60'1112.1
2015-Apr-01 00:33N 54°09' E 004°59'1212.1
2015-Mar-31 23:31N 53°56' E 004°57'1111.9
2015-Mar-31 22:34N 53°45' E 004°55'1212.4
2015-Mar-31 21:33N 53°33' E 004°48'1313.0
2015-Mar-31 20:33N 53°22' E 004°39'1312.4
2015-Mar-31 19:31N 53°10' E 004°29'1313.1
2015-Mar-31 18:33N 52°59' E 004°20'1313.0
2015-Mar-31 17:34N 52°47' E 004°10'4613.8
2015-Mar-31 14:14N 52°10' E 003°27'1014.5
2015-Mar-31 13:33N 52°00' E 003°24'1514.8
2015-Mar-31 12:33N 51°48' E 003°11'1614.5
2015-Mar-31 11:26N 51°32' E 003°06'8 9.2
2015-Mar-31 10:33N 51°24' E 003°08'4 4.3
2015-Mar-31 09:33N 51°21' E 003°13'0 0.0
2015-Mar-31 08:19N 51°21' E 003°13'0 0.0
2015-Mar-31 07:31N 51°21' E 003°13'0 0.0
2015-Mar-31 06:31N 51°21' E 003°13'0 0.0
2015-Mar-31 05:31N 51°21' E 003°13'0 0.0
2015-Mar-31 04:31N 51°21' E 003°13'0 0.0
2015-Mar-31 03:31N 51°21' E 003°13'0 0.0
2015-Mar-31 02:25N 51°21' E 003°13'0 0.0
2015-Mar-31 01:22N 51°21' E 003°13'0 0.0
2015-Mar-31 00:31N 51°21' E 003°13'0 0.0
2015-Mar-30 23:28N 51°21' E 003°13'0 0.0
2015-Mar-30 22:31N 51°21' E 003°13'0 0.0
2015-Mar-30 21:31N 51°21' E 003°13'0 0.0
2015-Mar-30 20:31N 51°21' E 003°13'0 0.0
2015-Mar-30 19:31N 51°21' E 003°13'0 0.1
2015-Mar-30 18:22N 51°21' E 003°13'0 0.0
2015-Mar-30 16:16N 51°21' E 003°13'0 0.0
2015-Mar-30 15:28N 51°21' E 003°13'0 0.0
2015-Mar-30 14:19N 51°21' E 003°13'0 0.0
2015-Mar-30 12:19N 51°21' E 003°13'0 0.0
2015-Mar-30 08:07N 51°21' E 003°13'0 0.0
2015-Mar-30 06:28N 51°21' E 003°13'0 0.0
2015-Mar-30 05:22N 51°21' E 003°13'0 0.0
2015-Mar-30 04:31N 51°21' E 003°13'0 0.0
2015-Mar-30 03:19N 51°21' E 003°13'0 0.0
2015-Mar-30 02:25N 51°21' E 003°13'1 0.8
2015-Mar-30 01:34N 51°21' E 003°12'1110.7
2015-Mar-30 00:33N 51°31' E 003°05'1514.7
2015-Mar-29 23:32N 51°45' E 003°10'4513.9
2015-Mar-29 20:17N 52°28' E 003°37'8414.6
2015-Mar-29 14:33N 53°39' E 004°48'1515.0
2015-Mar-29 13:33N 53°49' E 005°08'1515.0
2015-Mar-29 12:33N 53°58' E 005°28'1414.0
2015-Mar-29 11:33N 54°09' E 005°43'6515.3
2015-Mar-29 07:19N 55°10' E 006°19'1815.5
2015-Mar-29 06:08N 55°28' E 006°29'9315.5
2015-Mar-29 00:10N 56°49' E 007°50'1114.5
2015-Mar-28 23:24N 56°58' E 008°00'7714.6
2015-Mar-28 18:07N 57°42' E 009°59'915.9
2015-Mar-28 17:33N 57°45' E 010°14'1515.2
2015-Mar-28 16:34N 57°49' E 010°41'1717.0
2015-Mar-28 15:33N 57°43' E 011°11'1616.2
2015-Mar-28 14:33N 57°37' E 011°39'8 7.9
2015-Mar-28 13:29N 57°41' E 011°52'0 0.0
2015-Mar-28 12:32N 57°41' E 011°52'0 0.0
2015-Mar-28 11:32N 57°41' E 011°52'0 0.0
2015-Mar-28 10:32N 57°41' E 011°52'0 0.0
2015-Mar-28 09:32N 57°41' E 011°52'0 0.0
2015-Mar-28 08:32N 57°41' E 011°52'0 0.0
2015-Mar-28 07:32N 57°41' E 011°52'0 0.0
2015-Mar-28 06:32N 57°41' E 011°52'3 3.3
2015-Mar-28 05:33N 57°40' E 011°47'1414.4
2015-Mar-28 04:34N 57°37' E 011°21'1313.2
2015-Mar-28 03:33N 57°41' E 010°57'1413.9
2015-Mar-28 02:33N 57°48' E 010°34'1514.9
2015-Mar-28 01:33N 57°44' E 010°07'17814.4
2015-Mar-27 13:13N 55°31' E 006°32'1115.4
2015-Mar-27 12:29N 55°20' E 006°25'1515.4
2015-Mar-27 11:29N 55°05' E 006°16'5215.6
2015-Mar-27 08:08N 54°16' E 005°46'915.6
2015-Mar-27 07:33N 54°07' E 005°42'1515.2
2015-Mar-27 06:33N 53°55' E 005°26'1616.0
2015-Mar-27 05:34N 53°45' E 005°06'1615.7
2015-Mar-27 04:33N 53°33' E 004°48'1515.3
2015-Mar-27 03:33N 53°19' E 004°37'1515.1
2015-Mar-27 02:33N 53°06' E 004°26'1515.2
2015-Mar-27 01:33N 52°52' E 004°15'1515.2
2015-Mar-27 00:33N 52°40' E 003°59'3314.9
2015-Mar-26 22:19N 52°12' E 003°29'1316.0
2015-Mar-26 21:32N 52°00' E 003°23'1616.4
2015-Mar-26 20:33N 51°46' E 003°11'1716.8
2015-Mar-26 19:34N 51°30' E 003°04'1110.8
2015-Mar-26 18:33N 51°21' E 003°13'0 0.0
2015-Mar-26 17:11N 51°21' E 003°13'0 0.0
2015-Mar-26 16:29N 51°21' E 003°13'0 0.0
2015-Mar-26 15:32N 51°21' E 003°13'0 0.0
2015-Mar-26 13:11N 51°21' E 003°13'0 0.0
2015-Mar-26 12:20N 51°21' E 003°13'0 0.0
2015-Mar-26 11:23N 51°21' E 003°13'0 0.0
2015-Mar-26 09:27N 51°21' E 003°13'5 5.2
2015-Mar-26 08:34N 51°24' E 003°08'7 7.4
2015-Mar-26 07:33N 51°31' E 003°05'1313.0
2015-Mar-26 06:33N 51°44' E 003°09'1312.9
2015-Mar-26 05:33N 51°55' E 003°18'1814.9
2015-Mar-26 04:22N 52°12' E 003°28'2916.3
2015-Mar-26 02:33N 52°38' E 003°53'1817.3
2015-Mar-26 01:32N 52°55' E 003°59'1717.0
2015-Mar-26 00:33N 53°07' E 004°18'1816.6
2015-Mar-25 23:26N 53°24' E 004°32'1415.8
2015-Mar-25 22:34N 53°36' E 004°41'1615.5
2015-Mar-25 21:33N 53°46' E 005°02'1615.9
2015-Mar-25 20:33N 53°56' E 005°24'1615.7
2015-Mar-25 19:33N 54°07' E 005°42'25215.4
2015-Mar-25 03:08N 57°39' E 009°47'916.0
2015-Mar-25 02:33N 57°43' E 010°02'1716.6
2015-Mar-25 01:33N 57°49' E 010°31'1616.4
2015-Mar-25 00:33N 57°45' E 011°01'1716.8
2015-Mar-24 23:33N 57°38' E 011°29'1312.8
2015-Mar-24 22:34N 57°41' E 011°52'0 0.2
2015-Mar-24 21:31N 57°41' E 011°52'0 0.0
2015-Mar-24 20:31N 57°41' E 011°52'0 0.0
2015-Mar-24 19:31N 57°41' E 011°52'0 0.0
2015-Mar-24 18:31N 57°41' E 011°52'0 0.0
2015-Mar-24 17:31N 57°41' E 011°52'0 0.0
2015-Mar-24 16:31N 57°41' E 011°52'0 0.0
2015-Mar-24 15:31N 57°41' E 011°52'0 0.0
2015-Mar-24 14:31N 57°41' E 011°52'0 0.0
2015-Mar-24 13:31N 57°41' E 011°52'0 0.0
2015-Mar-24 12:31N 57°41' E 011°52'0 0.0
2015-Mar-24 11:31N 57°41' E 011°52'0 0.0
2015-Mar-24 10:31N 57°41' E 011°52'0 0.0
2015-Mar-24 09:31N 57°41' E 011°52'0 0.0
2015-Mar-24 08:31N 57°41' E 011°52'0 0.0
2015-Mar-24 07:31N 57°41' E 011°52'0 0.0
2015-Mar-24 06:31N 57°41' E 011°52'0 0.0
2015-Mar-24 05:31N 57°41' E 011°52'0 0.0
2015-Mar-24 04:32N 57°41' E 011°52'0 0.0
2015-Mar-24 03:31N 57°41' E 011°52'0 0.0
2015-Mar-24 02:31N 57°41' E 011°52'0 0.0
2015-Mar-24 01:31N 57°41' E 011°52'4 3.8
2015-Mar-24 00:33N 57°41' E 011°45'2 2.2
2015-Mar-23 23:33N 57°40' E 011°41'0 0.0
2015-Mar-23 22:33N 57°40' E 011°41'0 0.1
2015-Mar-23 21:33N 57°40' E 011°41'0 0.0
2015-Mar-23 20:33N 57°40' E 011°41'0 0.0
2015-Mar-23 19:33N 57°40' E 011°41'0 0.1
2015-Mar-23 18:33N 57°40' E 011°41'0 0.0
2015-Mar-23 17:33N 57°40' E 011°41'0 0.1
2015-Mar-23 16:33N 57°40' E 011°41'0 0.0
2015-Mar-23 15:33N 57°40' E 011°41'0 0.0
2015-Mar-23 14:33N 57°40' E 011°41'0 0.0
2015-Mar-23 13:33N 57°40' E 011°41'0 0.1
2015-Mar-23 12:33N 57°40' E 011°41'0 0.1
2015-Mar-23 11:33N 57°40' E 011°41'0 0.1
2015-Mar-23 10:33N 57°40' E 011°41'0 0.0
2015-Mar-23 09:33N 57°40' E 011°41'0 0.1
2015-Mar-23 08:33N 57°40' E 011°41'0 0.1
2015-Mar-23 07:33N 57°41' E 011°41'0 0.0
2015-Mar-23 06:32N 57°41' E 011°41'0 0.1
2015-Mar-23 05:29N 57°41' E 011°41'5 5.6
2015-Mar-23 04:33N 57°41' E 011°51'1 0.7
2015-Mar-23 03:32N 57°41' E 011°52'0 0.0
2015-Mar-23 02:32N 57°41' E 011°52'0 0.0
2015-Mar-23 01:32N 57°41' E 011°52'0 0.0
2015-Mar-23 00:32N 57°41' E 011°52'0 0.0
2015-Mar-22 23:32N 57°41' E 011°52'0 0.0
2015-Mar-22 22:32N 57°41' E 011°52'0 0.0
2015-Mar-22 21:32N 57°41' E 011°52'0 0.0
2015-Mar-22 20:32N 57°41' E 011°52'0 0.0
2015-Mar-22 19:32N 57°41' E 011°52'0 0.0
2015-Mar-22 18:32N 57°41' E 011°52'0 0.0
2015-Mar-22 17:32N 57°41' E 011°52'0 0.0
2015-Mar-22 16:32N 57°41' E 011°52'0 0.0
2015-Mar-22 15:32N 57°41' E 011°52'0 0.0
2015-Mar-22 14:32N 57°41' E 011°52'0 0.1
2015-Mar-22 13:33N 57°41' E 011°52'9 9.5
2015-Mar-22 12:33N 57°37' E 011°37'1414.4
2015-Mar-22 11:33N 57°37' E 011°10'1715.5
2015-Mar-22 10:29N 57°48' E 010°46'  
Track history (hours):
 
Tides and Currents Weather Stations Pressure Air Temp Water Temp Dewpoint Dewpoint Depression Visibility Wind Speed Wind Dir Waves Ship Positions

Celandine

Last reported at 2015-Apr-01 07:33 UTC. Time now 2015-Apr-01 08:02 UTC.
Position N 55°03' E 006°38'.

Length 162 m; draft 6 m.

Type: Ship (hazmat cat A). MMSI: 205476000.

Date/timePositionNaut miles runAvg speedWind from/ knotsBaromVisibWave heightAir tempDewpointWater temp
2015-Apr-01 07:33N 55°03' E 006°38'1110.6
2015-Apr-01 06:33N 54°53' E 006°39'6613.0
2015-Apr-01 01:26N 54°19' E 004°60'1112.1
2015-Apr-01 00:33N 54°09' E 004°59'1212.1
2015-Mar-31 23:31N 53°56' E 004°57'1111.9
2015-Mar-31 22:34N 53°45' E 004°55'1212.4
2015-Mar-31 21:33N 53°33' E 004°48'1313.0
2015-Mar-31 20:33N 53°22' E 004°39'1312.4
2015-Mar-31 19:31N 53°10' E 004°29'1313.1
2015-Mar-31 18:33N 52°59' E 004°20'1313.0
2015-Mar-31 17:34N 52°47' E 004°10'4613.8
2015-Mar-31 14:14N 52°10' E 003°27'1014.5
2015-Mar-31 13:33N 52°00' E 003°24'1514.8
2015-Mar-31 12:33N 51°48' E 003°11'1614.5
2015-Mar-31 11:26N 51°32' E 003°06'8 9.2
2015-Mar-31 10:33N 51°24' E 003°08'4 4.3
2015-Mar-31 09:33N 51°21' E 003°13'0 0.0
2015-Mar-31 08:19N 51°21' E 003°13'0 0.0
2015-Mar-31 07:31N 51°21' E 003°13'0 0.0
2015-Mar-31 06:31N 51°21' E 003°13'0 0.0
2015-Mar-31 05:31N 51°21' E 003°13'0 0.0
2015-Mar-31 04:31N 51°21' E 003°13'0 0.0
2015-Mar-31 03:31N 51°21' E 003°13'0 0.0
2015-Mar-31 02:25N 51°21' E 003°13'0 0.0
2015-Mar-31 01:22N 51°21' E 003°13'0 0.0
2015-Mar-31 00:31N 51°21' E 003°13'0 0.0
2015-Mar-30 23:28N 51°21' E 003°13'0 0.0
2015-Mar-30 22:31N 51°21' E 003°13'0 0.0
2015-Mar-30 21:31N 51°21' E 003°13'0 0.0
2015-Mar-30 20:31N 51°21' E 003°13'0 0.0
2015-Mar-30 19:31N 51°21' E 003°13'0 0.1
2015-Mar-30 18:22N 51°21' E 003°13'0 0.0
2015-Mar-30 16:16N 51°21' E 003°13'0 0.0
2015-Mar-30 15:28N 51°21' E 003°13'0 0.0
2015-Mar-30 14:19N 51°21' E 003°13'0 0.0
2015-Mar-30 12:19N 51°21' E 003°13'0 0.0
2015-Mar-30 08:07N 51°21' E 003°13'0 0.0
2015-Mar-30 06:28N 51°21' E 003°13'0 0.0
2015-Mar-30 05:22N 51°21' E 003°13'0 0.0
2015-Mar-30 04:31N 51°21' E 003°13'0 0.0
2015-Mar-30 03:19N 51°21' E 003°13'0 0.0
2015-Mar-30 02:25N 51°21' E 003°13'1 0.8
2015-Mar-30 01:34N 51°21' E 003°12'1110.7
2015-Mar-30 00:33N 51°31' E 003°05'1514.7
2015-Mar-29 23:32N 51°45' E 003°10'4513.9
2015-Mar-29 20:17N 52°28' E 003°37'8414.6
2015-Mar-29 14:33N 53°39' E 004°48'1515.0
2015-Mar-29 13:33N 53°49' E 005°08'1515.0
2015-Mar-29 12:33N 53°58' E 005°28'1414.0
2015-Mar-29 11:33N 54°09' E 005°43'6515.3
2015-Mar-29 07:19N 55°10' E 006°19'1815.5
2015-Mar-29 06:08N 55°28' E 006°29'9315.5
2015-Mar-29 00:10N 56°49' E 007°50'1114.5
2015-Mar-28 23:24N 56°58' E 008°00'7714.6
2015-Mar-28 18:07N 57°42' E 009°59'915.9
2015-Mar-28 17:33N 57°45' E 010°14'1515.2
2015-Mar-28 16:34N 57°49' E 010°41'1717.0
2015-Mar-28 15:33N 57°43' E 011°11'1616.2
2015-Mar-28 14:33N 57°37' E 011°39'8 7.9
2015-Mar-28 13:29N 57°41' E 011°52'0 0.0
2015-Mar-28 12:32N 57°41' E 011°52'0 0.0
2015-Mar-28 11:32N 57°41' E 011°52'0 0.0
2015-Mar-28 10:32N 57°41' E 011°52'0 0.0
2015-Mar-28 09:32N 57°41' E 011°52'0 0.0
2015-Mar-28 08:32N 57°41' E 011°52'0 0.0
2015-Mar-28 07:32N 57°41' E 011°52'0 0.0
2015-Mar-28 06:32N 57°41' E 011°52'3 3.3
2015-Mar-28 05:33N 57°40' E 011°47'1414.4
2015-Mar-28 04:34N 57°37' E 011°21'1313.2
2015-Mar-28 03:33N 57°41' E 010°57'1413.9
2015-Mar-28 02:33N 57°48' E 010°34'1514.9
2015-Mar-28 01:33N 57°44' E 010°07'17814.4
2015-Mar-27 13:13N 55°31' E 006°32'1115.4
2015-Mar-27 12:29N 55°20' E 006°25'1515.4
2015-Mar-27 11:29N 55°05' E 006°16'5215.6
2015-Mar-27 08:08N 54°16' E 005°46'915.6
2015-Mar-27 07:33N 54°07' E 005°42'1515.2
2015-Mar-27 06:33N 53°55' E 005°26'1616.0
2015-Mar-27 05:34N 53°45' E 005°06'1615.7
2015-Mar-27 04:33N 53°33' E 004°48'1515.3
2015-Mar-27 03:33N 53°19' E 004°37'1515.1
2015-Mar-27 02:33N 53°06' E 004°26'1515.2
2015-Mar-27 01:33N 52°52' E 004°15'1515.2
2015-Mar-27 00:33N 52°40' E 003°59'3314.9
2015-Mar-26 22:19N 52°12' E 003°29'1316.0
2015-Mar-26 21:32N 52°00' E 003°23'1616.4
2015-Mar-26 20:33N 51°46' E 003°11'1716.8
2015-Mar-26 19:34N 51°30' E 003°04'1110.8
2015-Mar-26 18:33N 51°21' E 003°13'0 0.0
2015-Mar-26 17:11N 51°21' E 003°13'0 0.0
2015-Mar-26 16:29N 51°21' E 003°13'0 0.0
2015-Mar-26 15:32N 51°21' E 003°13'0 0.0
2015-Mar-26 13:11N 51°21' E 003°13'0 0.0
2015-Mar-26 12:20N 51°21' E 003°13'0 0.0
2015-Mar-26 11:23N 51°21' E 003°13'0 0.0
2015-Mar-26 09:27N 51°21' E 003°13'5 5.2
2015-Mar-26 08:34N 51°24' E 003°08'7 7.4
2015-Mar-26 07:33N 51°31' E 003°05'1313.0
2015-Mar-26 06:33N 51°44' E 003°09'1312.9
2015-Mar-26 05:33N 51°55' E 003°18'1814.9
2015-Mar-26 04:22N 52°12' E 003°28'2916.3
2015-Mar-26 02:33N 52°38' E 003°53'1817.3
2015-Mar-26 01:32N 52°55' E 003°59'1717.0
2015-Mar-26 00:33N 53°07' E 004°18'1816.6
2015-Mar-25 23:26N 53°24' E 004°32'1415.8
2015-Mar-25 22:34N 53°36' E 004°41'1615.5
2015-Mar-25 21:33N 53°46' E 005°02'1615.9
2015-Mar-25 20:33N 53°56' E 005°24'1615.7
2015-Mar-25 19:33N 54°07' E 005°42'25215.4
2015-Mar-25 03:08N 57°39' E 009°47'916.0
2015-Mar-25 02:33N 57°43' E 010°02'1716.6
2015-Mar-25 01:33N 57°49' E 010°31'1616.4
2015-Mar-25 00:33N 57°45' E 011°01'1716.8
2015-Mar-24 23:33N 57°38' E 011°29'1312.8
2015-Mar-24 22:34N 57°41' E 011°52'0 0.2
2015-Mar-24 21:31N 57°41' E 011°52'0 0.0
2015-Mar-24 20:31N 57°41' E 011°52'0 0.0
2015-Mar-24 19:31N 57°41' E 011°52'0 0.0
2015-Mar-24 18:31N 57°41' E 011°52'0 0.0
2015-Mar-24 17:31N 57°41' E 011°52'0 0.0
2015-Mar-24 16:31N 57°41' E 011°52'0 0.0
2015-Mar-24 15:31N 57°41' E 011°52'0 0.0
2015-Mar-24 14:31N 57°41' E 011°52'0 0.0
2015-Mar-24 13:31N 57°41' E 011°52'0 0.0
2015-Mar-24 12:31N 57°41' E 011°52'0 0.0
2015-Mar-24 11:31N 57°41' E 011°52'0 0.0
2015-Mar-24 10:31N 57°41' E 011°52'0 0.0
2015-Mar-24 09:31N 57°41' E 011°52'0 0.0
2015-Mar-24 08:31N 57°41' E 011°52'0 0.0
2015-Mar-24 07:31N 57°41' E 011°52'0 0.0
2015-Mar-24 06:31N 57°41' E 011°52'0 0.0
2015-Mar-24 05:31N 57°41' E 011°52'0 0.0
2015-Mar-24 04:32N 57°41' E 011°52'0 0.0
2015-Mar-24 03:31N 57°41' E 011°52'0 0.0
2015-Mar-24 02:31N 57°41' E 011°52'0 0.0
2015-Mar-24 01:31N 57°41' E 011°52'4 3.8
2015-Mar-24 00:33N 57°41' E 011°45'2 2.2
2015-Mar-23 23:33N 57°40' E 011°41'0 0.0
2015-Mar-23 22:33N 57°40' E 011°41'0 0.1
2015-Mar-23 21:33N 57°40' E 011°41'0 0.0
2015-Mar-23 20:33N 57°40' E 011°41'0 0.0
2015-Mar-23 19:33N 57°40' E 011°41'0 0.1
2015-Mar-23 18:33N 57°40' E 011°41'0 0.0
2015-Mar-23 17:33N 57°40' E 011°41'0 0.1
2015-Mar-23 16:33N 57°40' E 011°41'0 0.0
2015-Mar-23 15:33N 57°40' E 011°41'0 0.0
2015-Mar-23 14:33N 57°40' E 011°41'0 0.0
2015-Mar-23 13:33N 57°40' E 011°41'0 0.1
2015-Mar-23 12:33N 57°40' E 011°41'0 0.1
2015-Mar-23 11:33N 57°40' E 011°41'0 0.1
2015-Mar-23 10:33N 57°40' E 011°41'0 0.0
2015-Mar-23 09:33N 57°40' E 011°41'0 0.1
2015-Mar-23 08:33N 57°40' E 011°41'0 0.1
2015-Mar-23 07:33N 57°41' E 011°41'0 0.0
2015-Mar-23 06:32N 57°41' E 011°41'0 0.1
2015-Mar-23 05:29N 57°41' E 011°41'5 5.6
2015-Mar-23 04:33N 57°41' E 011°51'1 0.7
2015-Mar-23 03:32N 57°41' E 011°52'0 0.0
2015-Mar-23 02:32N 57°41' E 011°52'0 0.0
2015-Mar-23 01:32N 57°41' E 011°52'0 0.0
2015-Mar-23 00:32N 57°41' E 011°52'0 0.0
2015-Mar-22 23:32N 57°41' E 011°52'0 0.0
2015-Mar-22 22:32N 57°41' E 011°52'0 0.0
2015-Mar-22 21:32N 57°41' E 011°52'0 0.0
2015-Mar-22 20:32N 57°41' E 011°52'0 0.0
2015-Mar-22 19:32N 57°41' E 011°52'0 0.0
2015-Mar-22 18:32N 57°41' E 011°52'0 0.0
2015-Mar-22 17:32N 57°41' E 011°52'0 0.0
2015-Mar-22 16:32N 57°41' E 011°52'0 0.0
2015-Mar-22 15:32N 57°41' E 011°52'0 0.0
2015-Mar-22 14:32N 57°41' E 011°52'0 0.1
2015-Mar-22 13:33N 57°41' E 011°52'9 9.5
2015-Mar-22 12:33N 57°37' E 011°37'1414.4
2015-Mar-22 11:33N 57°37' E 011°10'1715.5
2015-Mar-22 10:29N 57°48' E 010°46'  

Dump ship's entire track history